Time;durP1;ratioP1;P1;durP2;ratioP2;P2;SDS_P1;SDS_P2;PMS_P1;PMS_P2;Temp;Humidity;BMP_temperature;BMP_pressure;BME280_temperature;BME280_humidity;BME280_pressure;Samples;Min_cycle;Max_cycle;Signal;HPM_P1;HPM_P2
2024/01/22 00:00:13;;;;;;;13.88;5.05;;;5.60;99.90;;;;;;5081145;28;20893;-84
2024/01/22 00:02:40;;;;;;;9.90;4.65;;;5.80;99.90;;;;;;5072106;28;20046;-85
2024/01/22 00:05:06;;;;;;;8.57;4.53;;;5.80;99.90;;;;;;5084877;28;20047;-82
2024/01/22 00:07:32;;;;;;;11.23;4.63;;;5.70;99.90;;;;;;5086415;28;20047;-82
2024/01/22 00:09:58;;;;;;;15.07;4.90;;;5.80;99.90;;;;;;5080710;28;20040;-85
2024/01/22 00:12:24;;;;;;;11.55;5.18;;;4.50;99.90;;;;;;5083069;28;20031;-85
2024/01/22 00:14:49;;;;;;;9.60;4.82;;;5.90;99.90;;;;;;5085525;28;20440;-83
2024/01/22 00:17:15;;;;;;;16.00;5.05;;;6.20;99.90;;;;;;5074202;28;20068;-86
2024/01/22 00:19:41;;;;;;;12.23;5.25;;;6.20;99.90;;;;;;5083646;28;20532;-86
2024/01/22 00:22:07;;;;;;;13.07;5.35;;;5.70;99.90;;;;;;5077501;28;20122;-88
2024/01/22 00:24:33;;;;;;;16.80;5.60;;;6.80;99.90;;;;;;5080268;28;20035;-85
2024/01/22 00:26:58;;;;;;;11.63;5.82;;;5.80;99.90;;;;;;5083641;28;20050;-85
2024/01/22 00:29:24;;;;;;;13.25;5.75;;;5.90;99.90;;;;;;5097068;28;20054;-86
2024/01/22 00:31:50;;;;;;;9.40;4.38;;;7.50;99.90;;;;;;5091385;28;20039;-85
2024/01/22 00:34:16;;;;;;;11.20;5.05;;;6.30;99.90;;;;;;5098508;28;20150;-84
2024/01/22 00:36:42;;;;;;;11.82;5.53;;;6.10;99.90;;;;;;5079900;27;20040;-86
2024/01/22 00:39:08;;;;;;;11.20;4.60;;;6.10;99.90;;;;;;5093020;28;20100;-86
2024/01/22 00:41:33;;;;;;;16.95;5.50;;;5.90;99.90;;;;;;5073925;28;20048;-87
2024/01/22 00:43:59;;;;;;;11.02;4.43;;;6.00;99.90;;;;;;5101124;27;20488;-84
2024/01/22 00:46:25;;;;;;;10.90;5.38;;;4.10;99.90;;;;;;5083965;28;20158;-86
2024/01/22 00:48:51;;;;;;;11.45;5.28;;;6.00;99.90;;;;;;5094093;28;20047;-85
2024/01/22 00:51:17;;;;;;;8.45;5.38;;;6.00;99.90;;;;;;5084648;28;20043;-87
2024/01/22 00:53:42;;;;;;;13.68;6.53;;;6.60;99.90;;;;;;5103421;27;20050;-89
2024/01/22 00:56:11;;;;;;;9.27;5.20;;;4.30;99.90;;;;;;5083341;27;20074;-84
2024/01/22 00:58:37;;;;;;;13.95;6.03;;;7.10;99.90;;;;;;5086956;28;20557;-88
2024/01/22 01:01:03;;;;;;;12.02;5.35;;;6.50;99.90;;;;;;5094842;27;20044;-84
2024/01/22 01:03:32;;;;;;;9.05;4.95;;;6.20;99.90;;;;;;5094272;27;20049;-83
2024/01/22 01:05:58;;;;;;;11.90;5.47;;;6.10;99.90;;;;;;5099771;27;20048;-84
2024/01/22 01:08:24;;;;;;;10.02;5.00;;;6.10;99.90;;;;;;5093223;27;20048;-84
2024/01/22 01:10:50;;;;;;;9.13;5.50;;;6.10;99.90;;;;;;5083706;27;20054;-85
2024/01/22 01:13:17;;;;;;;12.20;4.85;;;6.10;99.90;;;;;;5075561;28;20167;-85
2024/01/22 01:15:46;;;;;;;9.77;4.63;;;6.90;99.90;;;;;;5073866;27;20070;-87
2024/01/22 01:18:15;;;;;;;9.45;4.72;;;3.90;99.90;;;;;;5085788;28;20165;-85
2024/01/22 01:20:41;;;;;;;10.73;4.70;;;7.20;99.90;;;;;;5088048;28;20551;-87
2024/01/22 01:23:07;;;;;;;8.25;3.63;;;6.30;99.90;;;;;;5104290;28;20040;-88
2024/01/22 01:25:33;;;;;;;11.75;4.80;;;6.60;99.90;;;;;;5085219;27;20067;-85
2024/01/22 01:27:59;;;;;;;10.52;4.60;;;6.50;99.90;;;;;;5087951;28;20058;-87
2024/01/22 01:30:25;;;;;;;10.38;4.35;;;6.60;99.90;;;;;;5081562;27;20036;-89
2024/01/22 01:32:51;;;;;;;11.65;4.45;;;8.50;99.90;;;;;;5093164;28;20362;-87
2024/01/22 01:35:17;;;;;;;11.35;5.15;;;6.40;99.90;;;;;;5081313;27;20097;-89
2024/01/22 01:37:42;;;;;;;8.40;5.22;;;7.00;99.90;;;;;;5079001;28;20043;-86
2024/01/22 01:40:09;;;;;;;9.50;5.13;;;6.40;99.90;;;;;;5076841;28;20046;-85
2024/01/22 01:42:43;;;;;;;13.25;5.60;;;6.90;99.90;;;;;;5079084;28;20382;-87
2024/01/22 01:45:16;;;;;;;7.32;4.35;;;6.40;99.90;;;;;;5096974;27;20071;-85
2024/01/22 01:47:48;;;;;;;12.73;4.85;;;6.60;99.90;;;;;;5080714;28;20066;-86
2024/01/22 01:50:17;;;;;;;11.90;5.70;;;6.70;99.90;;;;;;5098622;27;20044;-85
2024/01/22 01:52:46;;;;;;;8.70;5.22;;;7.40;99.90;;;;;;5084401;28;20127;-87
2024/01/22 01:55:12;;;;;;;9.57;5.22;;;4.70;99.90;;;;;;5082344;28;20051;-87
2024/01/22 01:57:39;;;;;;;15.70;5.90;;;6.70;99.90;;;;;;5074891;28;20039;-86
2024/01/22 02:00:14;;;;;;;13.73;6.15;;;7.00;99.90;;;;;;5090119;28;20875;-88
2024/01/22 02:02:44;;;;;;;9.77;5.22;;;6.80;99.90;;;;;;5088844;28;20079;-85
2024/01/22 02:05:13;;;;;;;11.55;6.40;;;6.60;99.90;;;;;;5090541;28;20040;-85
2024/01/22 02:07:39;;;;;;;10.70;5.82;;;6.60;99.90;;;;;;5090766;27;20139;-87
2024/01/22 02:10:10;;;;;;;13.10;5.70;;;7.20;99.90;;;;;;5087151;28;20193;-86
2024/01/22 02:12:39;;;;;;;12.27;6.43;;;6.70;99.90;;;;;;5083355;27;20044;-86
2024/01/22 02:15:06;;;;;;;12.95;5.47;;;6.70;99.90;;;;;;5079967;28;20520;-88
2024/01/22 02:17:35;;;;;;;11.13;5.45;;;6.70;99.90;;;;;;5082194;27;20047;-85
2024/01/22 02:20:04;;;;;;;16.15;6.22;;;4.60;99.90;;;;;;5087551;28;20054;-86
2024/01/22 02:22:33;;;;;;;15.45;6.68;;;9.50;99.90;;;;;;5077842;28;20048;-85
2024/01/22 02:24:59;;;;;;;15.80;7.25;;;4.40;99.90;;;;;;5077591;28;20051;-86
2024/01/22 02:27:28;;;;;;;10.75;5.82;;;5.50;99.90;;;;;;5086305;27;20044;-86
2024/01/22 02:29:54;;;;;;;11.63;5.95;;;6.90;99.90;;;;;;5075794;28;20040;-90
2024/01/22 02:32:20;;;;;;;10.70;5.88;;;6.60;99.90;;;;;;5080139;27;20050;-85
2024/01/22 02:34:46;;;;;;;8.82;5.55;;;7.40;99.90;;;;;;5074544;28;20044;-87
2024/01/22 02:37:12;;;;;;;12.30;6.03;;;6.80;99.90;;;;;;5084856;28;20052;-92
2024/01/22 02:39:38;;;;;;;15.02;7.32;;;7.50;99.90;;;;;;5086958;28;20116;-92
2024/01/22 02:42:04;;;;;;;12.80;7.00;;;9.10;99.90;;;;;;5080874;28;20586;-88
2024/01/22 02:44:32;;;;;;;15.75;7.70;;;7.70;99.90;;;;;;5083535;28;20571;-82
2024/01/22 02:47:00;;;;;;;15.05;7.35;;;7.40;99.90;;;;;;5106100;27;20055;-87
2024/01/22 02:49:27;;;;;;;12.07;6.45;;;6.80;99.90;;;;;;5088284;28;20051;-90
2024/01/22 02:51:53;;;;;;;12.70;6.43;;;7.30;99.90;;;;;;5086451;28;20040;-88
2024/01/22 02:54:19;;;;;;;13.48;6.03;;;7.10;99.90;;;;;;5078443;28;20050;-91
2024/01/22 02:56:45;;;;;;;11.15;5.75;;;8.80;99.90;;;;;;5093202;27;20412;-91
2024/01/22 02:59:11;;;;;;;15.35;6.78;;;7.00;99.90;;;;;;5081341;28;20047;-90
2024/01/22 03:01:37;;;;;;;13.93;6.47;;;7.00;99.90;;;;;;5080129;28;20108;-89
2024/01/22 03:04:03;;;;;;;14.27;6.25;;;7.60;99.90;;;;;;5091194;27;20039;-88
2024/01/22 03:06:41;;;;;;;13.60;6.47;;;7.10;99.90;;;;;;5079531;28;20109;-86
2024/01/22 03:09:07;;;;;;;11.40;6.50;;;8.30;99.90;;;;;;5094618;28;20100;-90
2024/01/22 03:11:33;;;;;;;15.48;6.63;;;7.20;99.90;;;;;;5078720;28;20039;-88
2024/01/22 03:13:59;;;;;;;12.45;6.93;;;9.10;99.90;;;;;;5076300;27;20085;-88
2024/01/22 03:16:25;;;;;;;18.60;8.10;;;8.50;99.90;;;;;;5091378;28;20073;-89
2024/01/22 03:18:53;;;;;;;12.45;6.55;;;7.00;99.90;;;;;;5085321;28;20054;-88
2024/01/22 03:21:19;;;;;;;12.20;6.78;;;8.50;99.90;;;;;;5078742;28;20147;-85
2024/01/22 03:23:52;;;;;;;13.77;6.47;;;7.10;99.90;;;;;;5093014;28;20150;-88
2024/01/22 03:26:20;;;;;;;11.85;6.82;;;8.50;99.90;;;;;;5091891;28;20112;-86
2024/01/22 03:28:48;;;;;;;11.70;6.93;;;8.80;99.90;;;;;;5069032;28;20052;-90
2024/01/22 03:31:25;;;;;;;13.48;6.45;;;7.30;99.90;;;;;;5075203;28;20370;-88
2024/01/22 03:33:55;;;;;;;12.52;7.28;;;7.20;99.90;;;;;;5087043;28;20043;-89
2024/01/22 03:36:22;;;;;;;10.20;6.75;;;7.10;99.90;;;;;;5084945;28;20067;-89
2024/01/22 03:38:48;;;;;;;12.85;6.90;;;7.10;99.90;;;;;;5101534;27;20114;-90
2024/01/22 03:41:14;;;;;;;11.55;6.68;;;7.90;99.90;;;;;;5085571;28;20071;-88
2024/01/22 03:43:44;;;;;;;11.18;6.00;;;7.20;99.90;;;;;;5086137;27;20066;-86
2024/01/22 03:46:14;;;;;;;9.85;5.82;;;7.60;99.90;;;;;;5090491;28;20043;-90
2024/01/22 03:48:41;;;;;;;12.23;5.65;;;7.60;99.90;;;;;;5101107;27;20058;-91
2024/01/22 03:51:06;;;;;;;11.88;6.05;;;4.20;99.90;;;;;;5103906;27;20047;-89
2024/01/22 03:53:33;;;;;;;13.50;6.22;;;7.30;99.90;;;;;;5083508;28;20687;-87
2024/01/22 03:56:01;;;;;;;11.40;6.00;;;8.30;99.90;;;;;;5073981;28;20043;-92
2024/01/22 03:58:30;;;;;;;11.95;6.38;;;7.40;99.90;;;;;;5103567;27;20103;-87
2024/01/22 04:00:56;;;;;;;12.02;5.55;;;7.40;99.90;;;;;;5097353;28;20051;-88
2024/01/22 04:03:24;;;;;;;10.30;6.18;;;7.50;99.90;;;;;;5105055;28;20035;-87
2024/01/22 04:05:50;;;;;;;10.82;5.22;;;5.90;99.90;;;;;;5095251;28;20050;-84
2024/01/22 04:08:16;;;;;;;14.05;6.88;;;7.40;99.90;;;;;;5093305;28;20055;-88
2024/01/22 04:10:42;;;;;;;11.38;6.22;;;7.50;99.90;;;;;;5082716;28;20040;-88
2024/01/22 04:13:12;;;;;;;11.13;6.18;;;7.60;99.90;;;;;;5085621;28;20071;-85
2024/01/22 04:15:41;;;;;;;12.68;6.40;;;8.80;99.90;;;;;;5093735;28;20610;-87
2024/01/22 04:18:07;;;;;;;14.02;7.07;;;8.30;99.90;;;;;;5093594;28;20048;-87
2024/01/22 04:20:33;;;;;;;10.05;5.93;;;7.60;99.90;;;;;;5075103;28;20750;-86
2024/01/22 04:22:59;;;;;;;10.50;5.35;;;8.00;99.90;;;;;;5100071;28;20032;-86
2024/01/22 04:25:25;;;;;;;12.10;6.40;;;8.50;99.90;;;;;;5085645;28;20055;-88
2024/01/22 04:27:54;;;;;;;9.65;6.03;;;7.40;99.90;;;;;;5077509;28;20052;-91
2024/01/22 04:30:20;;;;;;;10.30;5.22;;;8.30;99.90;;;;;;5085512;28;20058;-90
2024/01/22 04:32:46;;;;;;;12.07;6.97;;;9.20;99.90;;;;;;5081370;28;20341;-91
2024/01/22 04:35:12;;;;;;;11.68;5.65;;;9.00;99.90;;;;;;5084614;28;20044;-92
2024/01/22 04:37:38;;;;;;;11.60;6.03;;;7.80;99.90;;;;;;5104317;28;20047;-93
2024/01/22 04:40:09;;;;;;;12.00;7.07;;;7.80;99.90;;;;;;5091785;28;20070;-88
2024/01/22 04:42:35;;;;;;;8.63;5.47;;;7.90;99.90;;;;;;5088866;28;20042;-86
2024/01/22 04:45:04;;;;;;;14.82;7.00;;;7.90;99.90;;;;;;5107853;28;20095;-91
2024/01/22 04:47:33;;;;;;;11.05;6.43;;;9.30;99.90;;;;;;5082775;28;20048;-87
2024/01/22 04:49:58;;;;;;;10.98;5.32;;;7.90;99.90;;;;;;5090294;28;20124;-87
2024/01/22 04:52:24;;;;;;;11.90;5.90;;;8.60;99.90;;;;;;5100940;28;20134;-92
2024/01/22 04:54:50;;;;;;;12.77;5.38;;;8.00;99.90;;;;;;5077373;28;20713;-90
2024/01/22 04:57:16;;;;;;;12.55;5.55;;;7.20;99.90;;;;;;5082433;28;20556;-91
2024/01/22 04:59:42;;;;;;;9.95;5.35;;;9.00;99.90;;;;;;5105139;28;20123;-89
2024/01/22 05:02:08;;;;;;;8.20;5.72;;;8.10;99.90;;;;;;5092994;28;20100;-90
2024/01/22 05:04:34;;;;;;;9.88;5.57;;;8.00;99.90;;;;;;5094987;28;20104;-87
2024/01/22 05:07:06;;;;;;;8.02;5.10;;;7.30;99.90;;;;;;5110658;28;20051;-84
2024/01/22 05:09:32;;;;;;;10.13;5.05;;;8.80;99.90;;;;;;5080232;28;20522;-92
2024/01/22 05:11:57;;;;;;;10.02;4.25;;;8.20;99.90;;;;;;5081629;28;20048;-90
2024/01/22 05:14:26;;;;;;;8.38;4.90;;;7.60;99.90;;;;;;5103250;28;20043;-92
2024/01/22 05:16:52;;;;;;;9.73;5.32;;;8.20;99.90;;;;;;5088963;28;20047;-86
2024/01/22 05:19:24;;;;;;;11.70;5.78;;;8.30;99.90;;;;;;5084473;28;20047;-92
2024/01/22 05:21:50;;;;;;;8.73;5.13;;;9.20;99.90;;;;;;5082008;28;20039;-89
2024/01/22 05:24:17;;;;;;;7.97;5.03;;;5.90;99.90;;;;;;5086839;28;20075;-89
2024/01/22 05:26:43;;;;;;;9.65;5.22;;;8.20;99.90;;;;;;5104481;27;20106;-89
2024/01/22 05:29:09;;;;;;;9.13;5.50;;;8.40;99.90;;;;;;5085454;28;20111;-88
2024/01/22 05:31:38;;;;;;;7.85;5.75;;;8.50;99.90;;;;;;5082559;28;20098;-90
2024/01/22 05:34:04;;;;;;;7.20;4.90;;;11.70;99.90;;;;;;5105412;27;20937;-84
2024/01/22 05:36:30;;;;;;;8.02;5.25;;;8.40;99.90;;;;;;5088051;28;20130;-90
2024/01/22 05:38:56;;;;;;;10.57;6.70;;;8.30;99.90;;;;;;5075474;28;20071;-88
2024/01/22 05:41:21;;;;;;;8.20;4.82;;;8.40;99.90;;;;;;5102709;27;20063;-86
2024/01/22 05:43:47;;;;;;;7.65;5.13;;;8.40;99.90;;;;;;5094440;28;20663;-93
2024/01/22 05:46:16;;;;;;;9.10;5.72;;;8.60;99.90;;;;;;5085401;28;20082;-89
2024/01/22 05:48:42;;;;;;;9.80;6.05;;;8.50;99.90;;;;;;5094278;28;20043;-90
2024/01/22 05:51:12;;;;;;;12.35;5.72;;;8.50;99.90;;;;;;5100507;28;20153;-92
2024/01/22 05:53:41;;;;;;;8.20;4.90;;;8.60;99.90;;;;;;5088613;28;20126;-92
2024/01/22 05:56:08;;;;;;;10.02;5.63;;;8.50;99.90;;;;;;5086502;28;20263;-86
2024/01/22 05:58:34;;;;;;;8.20;4.60;;;8.60;99.90;;;;;;5086944;28;20035;-88
2024/01/22 06:00:59;;;;;;;7.95;4.93;;;8.60;99.90;;;;;;5094157;28;20043;-93
2024/01/22 06:03:25;;;;;;;9.70;5.75;;;8.60;99.90;;;;;;5084225;28;20259;-85
2024/01/22 06:05:51;;;;;;;7.75;4.95;;;8.60;99.90;;;;;;5091251;27;20040;-88
2024/01/22 06:08:17;;;;;;;8.18;4.45;;;8.70;99.90;;;;;;5084674;28;20040;-87
2024/01/22 06:10:43;;;;;;;7.25;4.43;;;8.60;99.90;;;;;;5084565;27;20162;-88
2024/01/22 06:13:09;;;;;;;6.25;3.80;;;8.70;99.90;;;;;;5082879;28;20042;-90
2024/01/22 06:15:35;;;;;;;6.45;3.47;;;8.70;99.90;;;;;;5083356;28;20059;-91
2024/01/22 06:18:01;;;;;;;7.60;2.97;;;8.80;99.90;;;;;;5085813;28;20048;-85
2024/01/22 06:20:29;;;;;;;4.72;2.88;;;;;;;;;;5099190;27;20796;-89
2024/01/22 06:22:56;;;;;;;6.20;3.20;;;;;;;;;;5081410;28;20109;-90
2024/01/22 06:25:22;;;;;;;6.47;3.35;;;9.00;99.90;;;;;;5103917;27;20756;-87
2024/01/22 06:27:47;;;;;;;7.25;2.88;;;9.30;99.90;;;;;;5081008;28;20040;-84
2024/01/22 06:30:15;;;;;;;5.45;2.55;;;8.60;99.90;;;;;;5084563;27;20412;-86
2024/01/22 06:32:41;;;;;;;6.05;2.17;;;9.80;99.90;;;;;;5101996;28;20043;-85
2024/01/22 06:35:07;;;;;;;6.60;2.30;;;9.40;99.90;;;;;;5076482;27;20572;-86
2024/01/22 06:37:34;;;;;;;6.22;2.20;;;9.30;99.90;;;;;;5102691;27;20432;-90
2024/01/22 06:40:00;;;;;;;8.35;2.70;;;9.20;99.90;;;;;;5096482;27;20182;-88
2024/01/22 06:42:27;;;;;;;4.32;1.83;;;9.30;99.90;;;;;;5090499;27;20615;-85
2024/01/22 06:44:53;;;;;;;6.32;1.63;;;9.10;99.90;;;;;;5076831;27;20131;-87
2024/01/22 06:47:19;;;;;;;4.80;1.10;;;9.30;99.90;;;;;;5083709;28;20228;-86
2024/01/22 06:49:45;;;;;;;3.67;1.67;;;9.50;99.90;;;;;;5082958;28;20047;-86
2024/01/22 06:52:11;;;;;;;5.32;1.77;;;9.60;99.90;;;;;;5091269;28;20561;-88
2024/01/22 06:54:39;;;;;;;4.65;1.45;;;9.60;99.90;;;;;;5079735;27;20413;-87
2024/01/22 06:57:05;;;;;;;5.82;1.35;;;10.70;99.90;;;;;;5090217;28;20047;-88
2024/01/22 06:59:31;;;;;;;5.57;1.15;;;9.70;99.90;;;;;;5075740;27;20032;-89
2024/01/22 07:01:58;;;;;;;4.78;1.17;;;9.50;99.90;;;;;;5084928;28;20044;-88
2024/01/22 07:04:24;;;;;;;7.22;1.65;;;9.70;99.90;;;;;;5099081;27;20039;-88
2024/01/22 07:06:53;;;;;;;10.45;1.60;;;9.50;99.90;;;;;;5093116;28;20727;-86
2024/01/22 07:09:22;;;;;;;11.07;1.80;;;7.40;99.90;;;;;;5090235;27;20072;-87
2024/01/22 07:11:49;;;;;;;12.73;2.33;;;9.50;99.90;;;;;;5079417;28;20155;-87
2024/01/22 07:14:15;;;;;;;13.98;3.20;;;9.70;99.90;;;;;;5079172;28;20043;-84
2024/01/22 07:16:41;;;;;;;15.10;3.03;;;9.60;99.90;;;;;;5103632;27;20399;-86
2024/01/22 07:19:07;;;;;;;18.35;3.17;;;9.70;99.90;;;;;;5087757;28;20135;-90
2024/01/22 07:21:33;;;;;;;15.40;3.03;;;9.50;99.90;;;;;;5086014;28;20789;-85
2024/01/22 07:23:59;;;;;;;21.85;3.30;;;10.20;99.90;;;;;;5098578;27;20050;-83
2024/01/22 07:26:25;;;;;;;18.75;3.58;;;9.70;99.90;;;;;;5097424;27;20050;-87
2024/01/22 07:28:51;;;;;;;17.02;3.80;;;9.70;99.90;;;;;;5091528;27;20067;-89
2024/01/22 07:31:17;;;;;;;18.00;3.83;;;9.80;99.90;;;;;;5079722;28;20048;-86
2024/01/22 07:33:45;;;;;;;19.95;3.40;;;9.70;99.90;;;;;;5083080;27;20090;-86
2024/01/22 07:36:13;;;;;;;24.45;2.92;;;9.70;99.90;;;;;;5079668;28;20044;-88
2024/01/22 07:38:39;;;;;;;27.02;4.53;;;9.60;99.90;;;;;;5084548;28;20046;-86
2024/01/22 07:41:05;;;;;;;16.45;2.60;;;9.80;99.90;;;;;;5085068;28;20035;-86
2024/01/22 07:43:32;;;;;;;34.42;4.88;;;9.70;99.90;;;;;;5087458;28;20049;-86
2024/01/22 07:45:59;;;;;;;26.10;5.80;;;9.50;99.90;;;;;;5097509;27;20096;-87
2024/01/22 07:48:26;;;;;;;27.95;4.53;;;9.60;99.90;;;;;;5088556;27;20043;-85
2024/01/22 07:50:54;;;;;;;25.02;4.90;;;9.60;99.90;;;;;;5090097;28;20036;-85
2024/01/22 07:53:20;;;;;;;19.05;4.57;;;9.60;99.90;;;;;;5100263;27;20075;-85
2024/01/22 07:55:47;;;;;;;18.30;3.15;;;9.70;99.90;;;;;;5096171;28;20136;-90
2024/01/22 07:58:15;;;;;;;26.35;5.05;;;9.50;99.90;;;;;;5104866;27;20043;-86
2024/01/22 08:00:41;;;;;;;22.70;6.00;;;9.60;99.90;;;;;;5096401;28;20049;-87
2024/01/22 08:03:07;;;;;;;19.35;4.05;;;9.60;99.90;;;;;;5091872;28;20039;-90
2024/01/22 08:05:33;;;;;;;20.17;4.22;;;9.60;99.90;;;;;;5083240;28;20047;-85
2024/01/22 08:07:59;;;;;;;26.00;4.28;;;9.50;99.90;;;;;;5083471;28;20047;-87
2024/01/22 08:10:25;;;;;;;28.42;5.25;;;9.60;99.90;;;;;;5081508;28;20078;-88
2024/01/22 08:12:51;;;;;;;29.42;4.90;;;10.10;99.90;;;;;;5075713;28;20052;-88
2024/01/22 08:15:17;;;;;;;31.75;4.90;;;9.60;99.90;;;;;;5078613;28;20079;-88
2024/01/22 08:17:46;;;;;;;35.85;6.22;;;9.60;99.90;;;;;;5085922;28;20054;-87
2024/01/22 08:20:15;;;;;;;33.58;4.85;;;9.60;99.90;;;;;;5084458;28;20491;-86
2024/01/22 08:22:43;;;;;;;31.95;4.63;;;9.60;99.90;;;;;;5081034;28;20040;-87
2024/01/22 08:25:09;;;;;;;27.48;5.25;;;9.60;99.90;;;;;;5080424;28;20036;-86
2024/01/22 08:27:35;;;;;;;19.80;4.00;;;9.80;99.90;;;;;;5096932;28;20147;-86
2024/01/22 08:30:04;;;;;;;32.97;5.35;;;10.50;99.90;;;;;;5075568;28;20044;-85
2024/01/22 08:32:30;;;;;;;28.67;4.80;;;9.80;99.90;;;;;;5090619;28;20131;-88
2024/01/22 08:34:56;;;;;;;24.63;4.88;;;9.60;99.90;;;;;;5098918;28;20039;-87
2024/01/22 08:37:22;;;;;;;29.98;4.88;;;8.30;99.90;;;;;;5083617;28;20092;-88
2024/01/22 08:39:48;;;;;;;32.22;4.55;;;10.10;99.90;;;;;;5096421;28;20123;-88
2024/01/22 08:42:14;;;;;;;38.15;5.45;;;9.70;99.90;;;;;;5086297;28;20043;-86
2024/01/22 08:44:43;;;;;;;27.70;5.10;;;9.70;99.90;;;;;;5085318;28;20081;-90
2024/01/22 08:47:09;;;;;;;36.08;5.55;;;9.70;99.90;;;;;;5080494;28;20051;-87
2024/01/22 08:49:35;;;;;;;26.15;6.13;;;9.30;99.90;;;;;;5098867;28;20044;-87
2024/01/22 08:52:01;;;;;;;32.38;5.10;;;9.80;99.90;;;;;;5100717;28;20376;-86
2024/01/22 08:54:27;;;;;;;20.45;2.70;;;9.70;99.90;;;;;;5105000;28;20051;-88
2024/01/22 08:56:53;;;;;;;25.00;4.95;;;9.70;99.90;;;;;;5083439;28;20067;-86
2024/01/22 08:59:18;;;;;;;21.92;3.92;;;9.70;99.90;;;;;;5103406;27;20079;-84
2024/01/22 09:01:44;;;;;;;17.38;3.20;;;9.60;99.90;;;;;;5081222;28;20032;-85
2024/01/22 09:04:10;;;;;;;18.92;3.20;;;9.50;99.90;;;;;;5096873;27;20594;-87
2024/01/22 09:06:37;;;;;;;19.52;3.28;;;6.90;99.90;;;;;;5094222;28;20151;-86
2024/01/22 09:09:05;;;;;;;35.35;5.03;;;9.60;99.90;;;;;;5089905;27;20047;-88
2024/01/22 09:11:31;;;;;;;30.30;4.05;;;9.60;99.90;;;;;;5092422;28;20044;-86
2024/01/22 09:13:57;;;;;;;27.52;4.82;;;9.50;99.90;;;;;;5094881;28;20077;-88
2024/01/22 09:16:29;;;;;;;43.42;6.65;;;9.50;99.90;;;;;;5090764;28;20052;-90
2024/01/22 09:18:57;;;;;;;45.90;5.50;;;9.40;99.90;;;;;;5090552;27;20047;-88
2024/01/22 09:21:23;;;;;;;46.53;5.40;;;9.40;99.90;;;;;;5114092;27;20039;-88
2024/01/22 09:23:49;;;;;;;42.15;5.25;;;9.40;99.90;;;;;;5086441;28;20124;-86
2024/01/22 09:26:15;;;;;;;46.63;6.50;;;9.30;99.90;;;;;;5085095;28;20527;-86
2024/01/22 09:28:41;;;;;;;51.95;8.88;;;8.80;99.90;;;;;;5093128;27;20687;-90
2024/01/22 09:31:07;;;;;;;67.45;8.77;;;10.00;99.90;;;;;;5098425;28;20040;-89
2024/01/22 09:33:33;;;;;;;45.97;7.03;;;9.20;99.90;;;;;;5085911;28;20099;-90
2024/01/22 09:36:05;;;;;;;61.30;6.38;;;9.30;99.90;;;;;;5079983;28;20127;-90
2024/01/22 09:38:31;;;;;;;57.97;5.80;;;9.40;99.90;;;;;;5106340;28;20058;-87
2024/01/22 09:40:57;;;;;;;55.22;6.10;;;9.20;99.90;;;;;;5088100;28;20492;-91
2024/01/22 09:43:35;;;;;;;55.53;8.68;;;9.20;99.90;;;;;;5084673;28;20035;-87
2024/01/22 09:46:03;;;;;;;45.17;6.03;;;9.20;99.90;;;;;;5075497;28;20515;-87
2024/01/22 09:48:32;;;;;;;44.70;5.85;;;9.20;99.90;;;;;;5094436;27;20595;-88
2024/01/22 09:51:01;;;;;;;44.88;5.78;;;9.10;99.90;;;;;;5092467;27;20044;-88
2024/01/22 09:53:28;;;;;;;59.85;9.23;;;9.00;99.90;;;;;;5081805;28;20050;-90
2024/01/22 09:55:56;;;;;;;59.75;8.38;;;9.10;99.90;;;;;;5083128;28;20119;-87
2024/01/22 09:58:29;;;;;;;42.78;5.70;;;9.10;99.90;;;;;;5106196;27;20036;-88
2024/01/22 10:00:55;;;;;;;47.22;6.43;;;9.00;99.90;;;;;;5094828;27;20040;-90
2024/01/22 10:03:22;;;;;;;63.83;8.85;;;9.00;99.90;;;;;;5088700;28;20046;-87
2024/01/22 10:05:51;;;;;;;55.22;7.43;;;9.00;99.90;;;;;;5087917;28;20047;-85
2024/01/22 10:08:19;;;;;;;55.08;7.25;;;8.90;99.90;;;;;;5088104;28;20043;-88
2024/01/22 10:10:48;;;;;;;48.40;5.43;;;8.90;99.90;;;;;;5088237;28;20047;-86
2024/01/22 10:13:17;;;;;;;45.15;5.95;;;8.90;99.90;;;;;;5085319;28;20048;-88
2024/01/22 10:15:47;;;;;;;79.07;10.45;;;8.90;99.90;;;;;;5080049;27;20076;-89
2024/01/22 10:18:17;;;;;;;59.70;8.88;;;8.90;99.90;;;;;;5018713;28;20109;-89
2024/01/22 10:20:51;;;;;;;42.72;5.05;;;9.00;99.90;;;;;;5034930;28;20056;-87
2024/01/22 10:23:17;;;;;;;50.92;6.63;;;8.70;99.90;;;;;;5021161;28;20036;-87
2024/01/22 10:25:55;;;;;;;44.30;6.28;;;8.60;99.90;;;;;;5022226;28;20041;-88
2024/01/22 10:28:21;;;;;;;42.38;5.07;;;5.80;99.90;;;;;;5037710;28;20040;-88
2024/01/22 10:31:11;;;;;;;60.95;7.47;;;9.20;99.90;;;;;;5057621;28;20047;-88
2024/01/22 10:33:38;;;;;;;53.20;6.80;;;8.60;99.90;;;;;;5038035;28;20857;-91
2024/01/22 10:36:16;;;;;;;55.20;5.88;;;8.60;99.90;;;;;;5021555;28;20041;-89
2024/01/22 10:38:50;;;;;;;54.03;6.43;;;8.70;99.90;;;;;;5021849;28;20052;-91
2024/01/22 10:41:19;;;;;;;42.95;6.05;;;8.70;99.90;;;;;;5021271;28;20107;-89
2024/01/22 10:43:46;;;;;;;51.45;7.22;;;8.60;99.90;;;;;;5022206;28;20563;-89
2024/01/22 10:46:26;;;;;;;53.78;6.13;;;8.80;99.90;;;;;;5013333;28;20080;-87
2024/01/22 10:49:01;;;;;;;64.68;10.25;;;8.80;99.90;;;;;;5048608;28;20635;-90
2024/01/22 10:51:33;;;;;;;50.45;6.90;;;8.60;99.90;;;;;;5038485;28;20037;-88
2024/01/22 10:53:59;;;;;;;;;;;8.40;99.90;;;;;;5023387;28;20045;-88
2024/01/22 10:56:32;;;;;;;62.75;7.88;;;8.50;99.90;;;;;;5021182;28;20296;-88
2024/01/22 10:59:12;;;;;;;61.75;11.38;;;8.60;99.90;;;;;;5007931;28;20041;-87
2024/01/22 11:01:51;;;;;;;61.58;8.27;;;8.70;99.90;;;;;;5043687;28;20123;-85
2024/01/22 11:04:23;;;;;;;50.35;9.40;;;8.70;99.90;;;;;;5025153;28;20099;-88
2024/01/22 11:06:54;;;;;;;54.63;8.35;;;8.70;99.90;;;;;;5039909;28;20050;-88
2024/01/22 11:09:20;;;;;;;75.40;11.90;;;8.60;99.90;;;;;;5009252;28;20296;-87
2024/01/22 11:11:53;;;;;;;54.60;7.35;;;8.60;99.90;;;;;;5018490;28;20045;-87
2024/01/22 11:14:22;;;;;;;56.03;7.25;;;8.50;99.90;;;;;;5039131;28;20529;-90
2024/01/22 11:16:55;;;;;;;61.85;10.85;;;8.40;99.90;;;;;;5019765;28;20041;-88
2024/01/22 11:19:28;;;;;;;57.30;8.45;;;8.50;99.90;;;;;;5014291;28;20356;-87
2024/01/22 11:22:07;;;;;;;65.43;10.98;;;8.70;99.90;;;;;;5021633;28;20096;-86
2024/01/22 11:24:36;;;;;;;49.03;8.52;;;8.90;99.90;;;;;;5024985;28;20052;-85
2024/01/22 11:27:05;;;;;;;66.03;9.82;;;9.10;99.90;;;;;;5025370;28;20135;-87
2024/01/22 11:29:37;;;;;;;40.80;6.35;;;9.20;99.90;;;;;;5028892;28;20127;-84
2024/01/22 11:32:28;;;;;;;46.47;7.32;;;9.00;99.90;;;;;;5045894;28;20052;-86
2024/01/22 11:34:57;;;;;;;36.60;6.18;;;9.00;99.90;;;;;;5043639;28;20072;-88
2024/01/22 11:37:34;;;;;;;49.10;6.72;;;8.90;99.90;;;;;;5043886;28;20048;-84
2024/01/22 11:40:07;;;;;;;43.28;5.88;;;8.60;99.90;;;;;;5041406;28;20048;-87
2024/01/22 11:42:40;;;;;;;21.55;4.00;;;10.50;99.90;;;;;;5044413;28;20052;-87
2024/01/22 11:45:35;;;;;;;50.83;8.00;;;8.80;99.90;;;;;;5029754;28;20072;-85
2024/01/22 11:48:27;;;;;;;42.53;6.32;;;8.80;99.90;;;;;;5024173;28;20118;-86
2024/01/22 11:51:05;;;;;;;46.10;6.97;;;8.70;99.90;;;;;;5036738;28;20058;-88
2024/01/22 11:53:31;;;;;;;53.85;6.43;;;8.40;99.90;;;;;;5025615;28;20707;-86
2024/01/22 11:56:09;;;;;;;46.10;6.72;;;8.80;99.90;;;;;;5022494;28;20045;-90
2024/01/22 11:58:41;;;;;;;43.03;6.63;;;8.80;99.90;;;;;;5033436;28;20095;-85
2024/01/22 12:01:11;;;;;;;26.42;4.35;;;8.90;99.90;;;;;;5025460;28;20045;-86
2024/01/22 12:03:37;;;;;;;29.58;4.88;;;9.00;99.90;;;;;;5023396;28;20118;-89
2024/01/22 12:06:08;;;;;;;29.48;4.22;;;8.90;99.90;;;;;;5022674;28;20393;-87
2024/01/22 12:08:37;;;;;;;26.13;6.72;;;9.00;99.90;;;;;;5021812;28;20045;-83
2024/01/22 12:11:13;;;;;;;41.22;7.72;;;8.90;99.90;;;;;;5040023;28;20044;-84
2024/01/22 12:13:43;;;;;;;36.80;5.57;;;9.00;99.90;;;;;;5027570;28;20048;-87
2024/01/22 12:16:21;;;;;;;42.47;6.75;;;9.00;99.90;;;;;;5024274;28;20045;-84
2024/01/22 12:18:47;;;;;;;35.05;4.22;;;9.20;99.90;;;;;;5011712;28;20063;-84
2024/01/22 12:21:24;;;;;;;31.52;4.05;;;9.10;99.90;;;;;;5015232;28;20081;-86
2024/01/22 12:23:51;;;;;;;30.52;4.18;;;9.00;99.90;;;;;;5003312;28;20092;-86
2024/01/22 12:26:24;;;;;;;24.85;3.35;;;8.90;99.90;;;;;;5006042;28;20075;-85
2024/01/22 12:28:59;;;;;;;26.50;3.42;;;9.20;99.90;;;;;;5023831;28;20135;-90
2024/01/22 12:31:25;;;;;;;31.77;4.50;;;9.00;99.90;;;;;;5037774;28;20033;-86
2024/01/22 12:34:14;;;;;;;26.17;4.55;;;8.90;99.90;;;;;;5024743;28;20044;-87
2024/01/22 12:36:41;;;;;;;21.73;3.13;;;9.00;99.90;;;;;;5028426;28;20886;-85
2024/01/22 12:39:20;;;;;;;18.92;3.10;;;8.90;99.90;;;;;;5024548;28;20041;-84
2024/01/22 12:41:48;;;;;;;35.53;4.75;;;9.00;99.90;;;;;;5021796;28;20045;-87
2024/01/22 12:44:17;;;;;;;18.73;2.65;;;9.00;99.90;;;;;;5021601;28;20040;-85
2024/01/22 12:46:49;;;;;;;21.40;2.80;;;8.50;99.90;;;;;;5030568;28;20048;-84
2024/01/22 12:49:15;;;;;;;28.58;3.83;;;9.10;99.90;;;;;;5014109;28;20041;-84
2024/01/22 12:51:41;;;;;;;24.08;2.22;;;9.00;99.90;;;;;;5019553;28;20041;-85
2024/01/22 12:54:56;;;;;;;28.73;4.63;;;9.10;99.90;;;;;;5035282;28;20098;-84